Time;durP1;ratioP1;P1;durP2;ratioP2;P2;SDS_P1;SDS_P2;PMS_P1;PMS_P2;Temp;Humidity;BMP_temperature;BMP_pressure;BME280_temperature;BME280_humidity;BME280_pressure;Samples;Min_cycle;Max_cycle;Signal;HPM_P1;HPM_P2
2022/10/05 00:01:33;;;;;;;;;;;;;;;11.82;66.42;96061.91;5070198;28;20432;-62
2022/10/05 00:04:11;;;;;;;;;;;;;;;11.80;66.42;96058.72;5070035;28;20103;-62
2022/10/05 00:06:36;;;;;;;;;;;;;;;11.76;66.37;96063.03;5069342;28;20543;-62
2022/10/05 00:09:09;;;;;;;;;;;;;;;11.76;66.18;96063.03;5070270;28;20020;-62
2022/10/05 00:11:35;;;;;;;;;;;;;;;11.74;66.34;96059.09;5069750;28;20593;-63
2022/10/05 00:14:05;;;;;;;;;;;;;;;11.71;66.25;96055.13;5069416;28;20017;-62
2022/10/05 00:16:31;;;;;;;;;;;;;;;11.73;65.96;96047.63;5086764;28;20062;-62
2022/10/05 00:18:58;;;;;;;;;;;;;;;11.69;66.00;96038.63;5089243;28;20013;-62
2022/10/05 00:21:27;;;;;;;;;;;;;;;11.67;66.00;96030.94;5088041;28;20019;-62
2022/10/05 00:23:54;;;;;;;;;;;;;;;11.68;66.38;96037.06;5069376;28;20044;-63
2022/10/05 00:26:20;;;;;;;;;;;;;;;11.67;66.31;96022.94;5070647;28;20013;-62
2022/10/05 00:28:45;;;;;;;;;;;;;;;11.65;66.47;96024.28;5068740;28;20021;-62
2022/10/05 00:31:15;;;;;;;;;;;;;;;11.66;66.26;96023.19;5082354;28;20043;-62
2022/10/05 00:33:40;;;;;;;;;;;;;;;11.65;66.25;96008.31;5068844;28;20021;-62
2022/10/05 00:36:06;;;;;;;;;;;;;;;11.66;66.17;96013.34;5070360;28;20504;-64
2022/10/05 00:38:31;;;;;;;;;;;;;;;11.65;66.54;96002.97;5069939;28;20016;-63
2022/10/05 00:41:10;;;;;;;;;;;;;;;11.66;66.46;96008.00;5069199;28;20017;-62
2022/10/05 00:43:45;;;;;;;;;;;;;;;11.66;66.56;96007.22;5053915;28;20055;-62
2022/10/05 00:46:14;;;;;;;;;;;;;;;11.67;66.75;96000.81;5088897;28;20020;-62
2022/10/05 00:48:39;;;;;;;;;;;;;;;11.68;66.66;95995.19;5088804;28;20013;-62
2022/10/05 00:51:23;;;;;;;;;;;;;;;11.66;66.83;96005.34;5090373;28;20065;-62
2022/10/05 00:53:56;;;;;;;;;;;;;;;11.67;67.03;96006.94;5063737;28;20021;-62
2022/10/05 00:56:40;;;;;;;;;;;;;;;11.69;66.76;96001.31;5068863;28;20013;-62
2022/10/05 00:59:05;;;;;;;;;;;;;;;11.72;66.73;96000.75;5068392;28;20060;-62
2022/10/05 01:01:35;;;;;;;;;;;;;;;11.73;66.73;96005.00;5068127;28;20035;-64
2022/10/05 01:04:19;;;;;;;;;;;;;;;11.73;66.29;95997.00;5070256;28;20047;-62
2022/10/05 01:07:03;;;;;;;;;;;;;;;11.71;66.68;95999.94;5070089;28;20009;-62
2022/10/05 01:09:36;;;;;;;;;;;;;;;11.70;66.57;95992.25;5069523;28;20013;-63
2022/10/05 01:12:19;;;;;;;;;;;;;;;11.68;66.58;95989.09;5069164;28;20425;-62
2022/10/05 01:15:03;;;;;;;;;;;;;;;11.68;66.00;95995.19;5072883;28;20016;-62
2022/10/05 01:17:32;;;;;;;;;;;;;;;11.68;66.42;95989.09;5072590;28;20021;-63
2022/10/05 01:20:06;;;;;;;;;;;;;;;11.69;66.10;95983.44;5073131;28;20052;-62
2022/10/05 01:22:34;;;;;;;;;;;;;;;11.69;66.45;95975.47;5073920;28;20095;-63
2022/10/05 01:25:19;;;;;;;;;;;;;;;11.71;66.46;95980.50;5072739;28;20162;-62
2022/10/05 01:28:08;;;;;;;;;;;;;;;11.70;66.14;95979.69;5072582;28;20016;-62
2022/10/05 01:30:38;;;;;;;;;;;;;;;11.73;66.62;95981.00;5071397;28;20785;-63
2022/10/05 01:33:10;;;;;;;;;;;;;;;11.73;66.40;95978.34;5073194;28;20025;-62
2022/10/05 01:35:47;;;;;;;;;;;;;;;11.76;66.26;95969.75;5072443;28;20013;-62
2022/10/05 01:38:20;;;;;;;;;;;;;;;11.80;66.86;95972.63;5073665;28;20009;-62
2022/10/05 01:41:01;;;;;;;;;;;;;;;11.80;66.06;95970.75;5067306;28;20546;-62
2022/10/05 01:43:37;;;;;;;;;;;;;;;11.83;66.53;95975.56;5052332;28;20040;-62
2022/10/05 01:46:25;;;;;;;;;;;;;;;11.83;66.24;95967.56;5059365;28;20025;-62
2022/10/05 01:49:10;;;;;;;;;;;;;;;11.87;66.21;95965.88;5052385;28;20013;-62
2022/10/05 01:51:36;;;;;;;;;;;;;;;11.88;66.22;95964.81;5073310;28;20565;-62
2022/10/05 01:54:01;;;;;;;;;;;;;;;11.92;66.66;95967.66;5072165;28;20112;-62
2022/10/05 01:56:29;;;;;;;;;;;;;;;11.94;65.91;95960.19;5073137;28;20469;-62
2022/10/05 01:59:04;;;;;;;;;;;;;;;11.93;66.18;95963.94;5070755;28;20487;-62
2022/10/05 02:01:34;;;;;;;;;;;;;;;11.94;66.24;95966.28;5071671;28;20016;-62
2022/10/05 02:04:10;;;;;;;;;;;;;;;11.96;66.14;95961.47;5073273;28;20010;-62
2022/10/05 02:06:38;;;;;;;;;;;;;;;11.99;65.95;95960.09;5071677;28;20013;-62
2022/10/05 02:09:07;;;;;;;;;;;;;;;12.03;66.33;95957.63;5072081;28;20013;-62
2022/10/05 02:11:33;;;;;;;;;;;;;;;12.06;66.29;95951.72;5071963;28;20111;-62
2022/10/05 02:14:06;;;;;;;;;;;;;;;12.08;65.76;95949.53;5073079;28;20509;-62
2022/10/05 02:16:44;;;;;;;;;;;;;;;12.09;66.25;95951.13;5079065;28;20017;-63
2022/10/05 02:19:19;;;;;;;;;;;;;;;12.11;66.21;95941.75;5085258;28;20489;-62
2022/10/05 02:21:47;;;;;;;;;;;;;;;12.14;66.17;95940.38;5071564;28;20373;-62
2022/10/05 02:24:17;;;;;;;;;;;;;;;12.13;66.30;95936.91;5072970;28;20010;-62
2022/10/05 02:26:42;;;;;;;;;;;;;;;12.18;66.40;95934.16;5071035;28;20013;-62
2022/10/05 02:29:10;;;;;;;;;;;;;;;12.22;66.47;95937.00;5070627;28;20018;-62
2022/10/05 02:32:08;;;;;;;;;;;;;;;12.20;66.31;95944.53;5078373;28;20085;-63
2022/10/05 02:34:38;;;;;;;;;;;;;;;12.20;66.35;95947.19;5057949;28;20013;-63
2022/10/05 02:37:22;;;;;;;;;;;;;;;12.23;66.87;95930.59;5087873;28;20029;-62
2022/10/05 02:39:59;;;;;;;;;;;;;;;12.26;66.59;95931.88;5072173;28;20116;-62
2022/10/05 02:42:32;;;;;;;;;;;;;;;12.27;66.32;95930.78;5071227;28;20013;-62
2022/10/05 02:44:57;;;;;;;;;;;;;;;12.28;66.23;95938.50;5071057;28;20115;-62
2022/10/05 02:47:33;;;;;;;;;;;;;;;12.19;66.17;95934.97;5079133;28;20111;-63
2022/10/05 02:50:02;;;;;;;;;;;;;;;12.21;66.15;95928.22;5071776;28;20116;-63
2022/10/05 02:52:43;;;;;;;;;;;;;;;12.21;65.97;95919.44;5071466;28;20012;-62
2022/10/05 02:55:15;;;;;;;;;;;;;;;12.17;66.12;95913.88;5071122;28;20009;-63
2022/10/05 02:57:51;;;;;;;;;;;;;;;12.16;65.90;95919.53;5072260;28;20024;-63
2022/10/05 03:00:21;;;;;;;;;;;;;;;12.10;66.33;95932.16;5087511;28;20477;-65
2022/10/05 03:02:51;;;;;;;;;;;;;;;12.12;65.87;95926.53;5086928;28;20017;-63
2022/10/05 03:05:30;;;;;;;;;;;;;;;12.07;65.99;95930.06;5090394;28;20059;-62
2022/10/05 03:07:59;;;;;;;;;;;;;;;12.07;66.26;95932.75;5069848;28;20017;-62
2022/10/05 03:10:27;;;;;;;;;;;;;;;12.04;66.37;95937.88;5071827;28;20018;-62
2022/10/05 03:13:21;;;;;;;;;;;;;;;12.03;66.42;95931.75;5070674;28;20355;-62
2022/10/05 03:16:05;;;;;;;;;;;;;;;12.00;66.32;95931.56;5053981;28;20014;-62
2022/10/05 03:18:37;;;;;;;;;;;;;;;11.97;66.35;95936.38;5071174;28;20064;-62
2022/10/05 03:21:10;;;;;;;;;;;;;;;11.96;66.44;95924.13;5071877;28;20464;-62
2022/10/05 03:23:54;;;;;;;;;;;;;;;11.94;66.60;95934.31;5071837;28;20009;-62
2022/10/05 03:26:32;;;;;;;;;;;;;;;11.92;66.27;95933.00;5069613;28;20013;-62
2022/10/05 03:29:16;;;;;;;;;;;;;;;11.83;67.09;95935.56;5071222;28;20009;-62
2022/10/05 03:31:41;;;;;;;;;;;;;;;11.84;67.53;95937.13;5075215;28;20017;-62
2022/10/05 03:34:13;;;;;;;;;;;;;;;11.87;66.79;95941.88;5085334;28;20020;-62
2022/10/05 03:36:45;;;;;;;;;;;;;;;11.87;67.23;95933.09;5071341;28;20373;-62
2022/10/05 03:39:33;;;;;;;;;;;;;;;11.85;66.51;95935.25;5070941;28;20013;-62
2022/10/05 03:42:04;;;;;;;;;;;;;;;11.83;66.72;95935.56;5070044;28;20017;-62
2022/10/05 03:44:29;;;;;;;;;;;;;;;11.82;66.70;95925.19;5069159;28;20038;-62
2022/10/05 03:47:01;;;;;;;;;;;;;;;11.80;66.51;95937.97;5074092;28;20016;-62
2022/10/05 03:49:38;;;;;;;;;;;;;;;11.79;66.53;95931.06;5090769;28;20025;-62
2022/10/05 03:52:08;;;;;;;;;;;;;;;11.77;66.43;95934.00;5089332;28;20008;-62
2022/10/05 03:54:37;;;;;;;;;;;;;;;11.76;66.77;95920.97;5069890;28;20523;-63
2022/10/05 03:57:08;;;;;;;;;;;;;;;11.78;67.14;95921.50;5071161;28;20019;-62
2022/10/05 03:59:39;;;;;;;;;;;;;;;11.80;66.52;95924.66;5070899;28;20016;-62
2022/10/05 04:02:06;;;;;;;;;;;;;;;11.80;67.17;95925.44;5069161;28;20062;-62
2022/10/05 04:04:48;;;;;;;;;;;;;;;11.81;67.14;95923.56;5070913;28;20055;-62
2022/10/05 04:07:20;;;;;;;;;;;;;;;11.83;67.14;95924.91;5071049;28;20012;-62
2022/10/05 04:09:46;;;;;;;;;;;;;;;11.84;67.11;95928.34;5070395;28;20013;-62
2022/10/05 04:12:18;;;;;;;;;;;;;;;11.83;66.60;95916.13;5068551;28;20058;-62
2022/10/05 04:14:45;;;;;;;;;;;;;;;11.79;66.48;95921.19;5069491;28;20048;-64
2022/10/05 04:17:13;;;;;;;;;;;;;;;11.77;66.81;95917.22;5069832;28;20078;-62
2022/10/05 04:19:52;;;;;;;;;;;;;;;11.73;66.61;95921.59;5068981;28;20009;-62
2022/10/05 04:22:18;;;;;;;;;;;;;;;11.74;67.00;95912.50;5069840;28;20086;-62
2022/10/05 04:24:54;;;;;;;;;;;;;;;11.74;66.67;95913.28;5069322;28;20457;-62
2022/10/05 04:27:29;;;;;;;;;;;;;;;11.73;66.49;95922.38;5069253;28;20079;-62
2022/10/05 04:30:00;;;;;;;;;;;;;;;11.71;66.73;95919.19;5068661;28;20016;-63
2022/10/05 04:32:26;;;;;;;;;;;;;;;11.69;66.64;95914.16;5075981;28;20017;-62
2022/10/05 04:35:10;;;;;;;;;;;;;;;11.69;66.77;95908.84;5079089;28;20013;-62
2022/10/05 04:37:44;;;;;;;;;;;;;;;11.70;66.84;95912.28;5069360;28;20013;-62
2022/10/05 04:40:22;;;;;;;;;;;;;;;11.73;66.88;95905.59;5068700;28;20009;-62
2022/10/05 04:42:56;;;;;;;;;;;;;;;11.73;66.95;95905.59;5068083;28;20656;-63
2022/10/05 04:45:22;;;;;;;;;;;;;;;11.76;66.25;95918.31;5068876;28;20008;-63
2022/10/05 04:48:16;;;;;;;;;;;;;;;11.77;66.35;95919.91;5076757;28;20112;-63
2022/10/05 04:50:46;;;;;;;;;;;;;;;11.76;66.87;95915.66;5081088;28;20023;-62
2022/10/05 04:53:26;;;;;;;;;;;;;;;11.77;66.68;95918.03;5078509;28;20013;-62
2022/10/05 04:55:55;;;;;;;;;;;;;;;11.77;66.45;95917.22;5068677;28;20013;-62
2022/10/05 04:58:30;;;;;;;;;;;;;;;11.78;66.03;95924.97;5068537;28;20385;-62
2022/10/05 05:01:10;;;;;;;;;;;;;;;11.79;66.48;95923.06;5069170;28;20188;-62
2022/10/05 05:03:42;;;;;;;;;;;;;;;11.80;66.52;95922.00;5069958;28;20025;-62
2022/10/05 05:06:23;;;;;;;;;;;;;;;11.82;66.39;95925.97;5067989;28;20025;-62
2022/10/05 05:08:48;;;;;;;;;;;;;;;11.82;66.15;95931.28;5069661;28;20035;-62
2022/10/05 05:11:16;;;;;;;;;;;;;;;11.83;66.32;95930.22;5070090;28;20540;-62
2022/10/05 05:14:05;;;;;;;;;;;;;;;11.89;66.36;95938.94;5068689;28;20067;-62
2022/10/05 05:16:41;;;;;;;;;;;;;;;11.89;66.12;95930.94;5069257;28;20014;-62
2022/10/05 05:19:24;;;;;;;;;;;;;;;11.93;65.52;95938.06;5069314;28;20024;-62
2022/10/05 05:21:59;;;;;;;;;;;;;;;11.93;65.77;95947.94;5066884;28;20020;-63
2022/10/05 05:24:45;;;;;;;;;;;;;;;11.93;66.01;95940.72;5068700;28;20465;-62
2022/10/05 05:27:28;;;;;;;;;;;;;;;11.95;65.78;95948.44;5085621;28;20017;-62
2022/10/05 05:30:03;;;;;;;;;;;;;;;11.97;65.53;95947.03;5068341;28;20051;-62
2022/10/05 05:32:28;;;;;;;;;;;;;;;12.00;65.68;95940.34;5070311;28;20021;-62
2022/10/05 05:34:53;;;;;;;;;;;;;;;12.03;65.74;95939.75;5077292;28;20021;-64
2022/10/05 05:37:34;;;;;;;;;;;;;;;12.07;65.38;95947.94;5069803;28;20095;-62
2022/10/05 05:39:59;;;;;;;;;;;;;;;12.10;65.25;95945.50;5068183;28;20013;-63
2022/10/05 05:42:25;;;;;;;;;;;;;;;12.15;65.34;95944.63;5066892;28;20503;-67
2022/10/05 05:44:52;;;;;;;;;;;;;;;12.20;65.41;95949.88;5069748;28;20010;-66
2022/10/05 05:47:20;;;;;;;;;;;;;;;12.26;64.97;95946.03;5069805;28;20107;-65
2022/10/05 05:49:50;;;;;;;;;;;;;;;12.30;64.99;95943.56;5088331;28;20021;-64
2022/10/05 05:52:21;;;;;;;;;;;;;;;12.36;64.88;95945.84;5069421;28;20020;-67
2022/10/05 05:54:55;;;;;;;;;;;;;;;12.42;64.86;95955.31;5069220;28;20045;-63
2022/10/05 05:57:26;;;;;;;;;;;;;;;12.47;64.39;95949.09;5069233;28;20534;-63
2022/10/05 06:00:04;;;;;;;;;;;;;;;12.43;64.25;95946.22;5072505;28;20017;-63
2022/10/05 06:02:38;;;;;;;;;;;;;;;12.57;64.42;95950.78;5070973;28;20017;-65
2022/10/05 06:05:35;;;;;;;;;;;;;;;12.63;64.59;95942.38;5072978;28;20049;-66
2022/10/05 06:08:05;;;;;;;;;;;;;;;12.69;64.19;95945.72;5050413;28;20014;-65
2022/10/05 06:10:40;;;;;;;;;;;;;;;12.75;64.11;95944.56;5070419;28;20021;-65
2022/10/05 06:13:12;;;;;;;;;;;;;;;12.76;63.69;95940.81;5054380;28;20012;-66
2022/10/05 06:15:40;;;;;;;;;;;;;;;12.78;63.67;95943.97;5073654;28;20462;-67
2022/10/05 06:18:09;;;;;;;;;;;;;;;12.94;63.70;95942.56;5071774;28;20131;-66
2022/10/05 06:20:53;;;;;;;;;;;;;;;13.00;63.73;95946.72;5071918;28;20020;-68
2022/10/05 06:23:22;;;;;;;;;;;;;;;13.17;63.99;95938.06;5071131;28;20487;-65
2022/10/05 06:25:47;;;;;;;;;;;;;;;13.27;63.06;95939.75;5069773;28;20025;-63
2022/10/05 06:28:14;;;;;;;;;;;;;;;13.33;61.87;95943.91;5073079;28;20022;-63
2022/10/05 06:30:58;;;;;;;;;;;;;;;13.50;62.19;95944.03;5071353;28;20119;-64
2022/10/05 06:33:26;;;;;;;;;;;;;;;13.61;62.22;95951.81;5074227;28;20066;-64
2022/10/05 06:36:01;;;;;;;;;;;;;;;13.69;61.40;95948.44;5071798;28;20020;-64
2022/10/05 06:38:45;;;;;;;;;;;;;;;13.74;61.20;95962.47;5072629;28;20052;-64
2022/10/05 06:41:16;;;;;;;;;;;;;;;13.84;61.63;95960.66;5069879;28;20083;-64
2022/10/05 06:43:41;;;;;;;;;;;;;;;13.94;61.17;95961.19;5070515;28;20098;-66
2022/10/05 06:46:21;;;;;;;;;;;;;;;14.03;60.73;95951.34;5072327;28;20051;-63
2022/10/05 06:48:52;;;;;;;;;;;;;;;14.11;60.79;95949.81;5072020;28;20378;-64
2022/10/05 06:51:24;;;;;;;;;;;;;;;14.22;60.47;95961.03;5070240;28;20028;-64
2022/10/05 06:54:07;;;;;;;;;;;;;;;14.36;60.56;95960.97;5072342;28;20040;-63
2022/10/05 06:56:38;;;;;;;;;;;;;;;14.46;60.07;95950.78;5070089;28;20477;-64
2022/10/05 06:59:12;;;;;;;;;;;;;;;14.55;59.96;95958.88;5070498;28;20493;-64
2022/10/05 07:02:07;;;;;;;;;;;;;;;14.59;58.96;95959.03;5071235;28;20549;-64
2022/10/05 07:04:32;;;;;;;;;;;;;;;14.79;59.00;95958.47;5053964;28;20012;-65
2022/10/05 07:07:00;;;;;;;;;;;;;;;14.86;58.53;95961.50;5070620;28;20369;-65
2022/10/05 07:09:34;;;;;;;;;;;;;;;15.02;58.56;95961.88;5069487;28;20013;-65
2022/10/05 07:12:02;;;;;;;;;;;;;;;15.14;58.59;95962.03;5070938;28;20024;-65
2022/10/05 07:14:40;;;;;;;;;;;;;;;15.25;57.93;95957.16;5069656;28;20420;-65
2022/10/05 07:17:25;;;;;;;;;;;;;;;15.37;57.55;95968.06;5070877;28;20063;-67
2022/10/05 07:19:53;;;;;;;;;;;;;;;15.51;57.59;95966.03;5071570;28;20053;-65
2022/10/05 07:22:18;;;;;;;;;;;;;;;15.64;57.34;95967.00;5071794;28;20109;-66
2022/10/05 07:25:00;;;;;;;;;;;;;;;15.67;55.96;95966.38;5070387;28;20052;-66
2022/10/05 07:27:29;;;;;;;;;;;;;;;15.85;56.26;95967.94;5064531;28;20024;-64
2022/10/05 07:29:57;;;;;;;;;;;;;;;16.01;55.92;95976.28;5070005;28;20542;-64
2022/10/05 07:32:41;;;;;;;;;;;;;;;16.20;55.62;95978.63;5071479;28;20009;-64
2022/10/05 07:38:10;;;;;;;;;;;;;;;16.56;54.94;95988.97;5070767;28;20016;-65
2022/10/05 07:40:44;;;;;;;;;;;;;;;16.68;54.78;95982.13;5069179;28;20024;-65
2022/10/05 07:43:28;;;;;;;;;;;;;;;16.79;54.43;95986.88;5070194;28;20021;-65
2022/10/05 07:45:58;;;;;;;;;;;;;;;16.58;52.71;95994.00;5071350;28;20045;-65
2022/10/05 07:48:32;;;;;;;;;;;;;;;16.89;54.05;95991.09;5069796;28;20020;-64
2022/10/05 07:51:05;;;;;;;;;;;;;;;17.13;53.53;95995.88;5069050;28;20070;-65
2022/10/05 07:53:35;;;;;;;;;;;;;;;17.21;53.15;95991.56;5071062;28;20104;-65
2022/10/05 07:56:09;;;;;;;;;;;;;;;17.35;52.97;95995.59;5068700;28;20069;-65
2022/10/05 07:58:46;;;;;;;;;;;;;;;17.49;52.69;95999.91;5068497;28;20027;-66
2022/10/05 08:01:11;;;;;;;;;;;;;;;17.52;52.36;95997.38;5068748;28;20032;-65
2022/10/05 08:03:42;;;;;;;;;;;;;;;17.62;51.70;96005.06;5069589;28;20024;-65
2022/10/05 08:06:10;;;;;;;;;;;;;;;17.78;51.90;96005.28;5070969;28;20465;-64
2022/10/05 08:08:44;;;;;;;;;;;;;;;17.69;51.07;96009.91;5068178;28;20024;-65
2022/10/05 08:11:23;;;;;;;;;;;;;;;18.00;51.74;96006.84;5069025;28;20025;-64
2022/10/05 08:13:54;;;;;;;;;;;;;;;18.22;51.19;96012.97;5069232;28;20060;-65
2022/10/05 08:16:22;;;;;;;;;;;;;;;18.39;50.85;96007.44;5070314;28;20043;-64
2022/10/05 08:18:53;;;;;;;;;;;;;;;18.48;50.20;96013.53;5068882;28;20017;-65
2022/10/05 08:21:21;;;;;;;;;;;;;;;18.59;49.75;96017.38;5068938;28;20017;-65
2022/10/05 08:23:54;;;;;;;;;;;;;;;18.72;48.98;96015.50;5068932;28;20118;-65
2022/10/05 08:26:37;;;;;;;;;;;;;;;18.85;48.70;96021.72;5068524;28;20024;-65
2022/10/05 08:29:12;;;;;;;;;;;;;;;19.00;48.57;96007.56;5069048;28;20009;-65
2022/10/05 08:31:39;;;;;;;;;;;;;;;19.18;48.59;96019.69;5068993;28;20098;-65
2022/10/05 08:34:23;;;;;;;;;;;;;;;19.32;48.36;96022.06;5069486;28;20367;-66
2022/10/05 08:37:02;;;;;;;;;;;;;;;19.51;47.97;96016.09;5069269;28;20415;-65
2022/10/05 08:39:36;;;;;;;;;;;;;;;19.62;47.67;96016.44;5085218;28;20389;-65
2022/10/05 08:42:16;;;;;;;;;;;;;;;19.78;47.28;96017.31;5067782;28;20415;-65
2022/10/05 08:44:53;;;;;;;;;;;;;;;19.81;46.87;96022.03;5068944;28;20017;-66
2022/10/05 08:47:19;;;;;;;;;;;;;;;20.05;46.88;96018.47;5069497;28;20020;-65
2022/10/05 08:49:50;;;;;;;;;;;;;;;20.23;46.63;96014.34;5069843;28;20367;-65
2022/10/05 08:52:23;;;;;;;;;;;;;;;20.45;46.44;96014.91;5070192;28;20029;-65
2022/10/05 08:55:00;;;;;;;;;;;;;;;20.58;46.13;96015.69;5068658;28;20017;-65
2022/10/05 08:57:26;;;;;;;;;;;;;;;20.70;45.59;96015.59;5069165;28;20043;-65
2022/10/05 08:59:51;;;;;;;;;;;;;;;20.34;43.10;96014.63;5068299;28;20112;-65
2022/10/05 09:02:28;;;;;;;;;;;;;;;20.87;44.52;96012.53;5068975;28;20377;-66
2022/10/05 09:05:12;;;;;;;;;;;;;;;20.80;42.84;96017.78;5070020;28;20027;-65
2022/10/05 09:07:52;;;;;;;;;;;;;;;21.08;42.60;96011.50;5070024;28;20104;-66
2022/10/05 09:10:23;;;;;;;;;;;;;;;21.21;41.01;96007.56;5068644;28;20017;-65
2022/10/05 09:13:11;;;;;;;;;;;;;;;21.15;41.11;96007.06;5068932;28;20025;-66
2022/10/05 09:15:37;;;;;;;;;;;;;;;21.66;41.41;96009.00;5069960;28;20010;-66
2022/10/05 09:18:17;;;;;;;;;;;;;;;21.35;40.67;96007.94;5068752;28;20028;-65
2022/10/05 09:20:51;;;;;;;;;;;;;;;20.98;41.32;96015.50;5068630;28;20029;-65
2022/10/05 09:23:19;;;;;;;;;;;;;;;21.45;41.07;96012.03;5069775;28;20550;-65
2022/10/05 09:26:05;;;;;;;;;;;;;;;20.90;41.83;96017.28;5067600;28;20465;-65
2022/10/05 09:28:44;;;;;;;;;;;;;;;21.60;41.49;96010.41;5067856;28;20032;-66
2022/10/05 09:31:09;;;;;;;;;;;;;;;21.40;41.37;96009.59;5069699;28;20017;-65
2022/10/05 09:33:34;;;;;;;;;;;;;;;21.72;41.66;96011.06;5071511;28;20385;-65
2022/10/05 09:36:00;;;;;;;;;;;;;;;20.77;43.31;96016.53;5073612;28;20009;-68
2022/10/05 09:38:35;;;;;;;;;;;;;;;21.60;41.92;96015.81;5072158;28;20013;-66
2022/10/05 09:41:25;;;;;;;;;;;;;;;21.29;42.09;96020.94;5073748;28;20009;-66
2022/10/05 09:44:05;;;;;;;;;;;;;;;21.11;42.06;96018.94;5071207;28;20078;-65
2022/10/05 09:46:42;;;;;;;;;;;;;;;21.21;42.13;96013.75;5072362;28;20013;-65
2022/10/05 09:49:09;;;;;;;;;;;;;;;21.59;42.26;96015.03;5072019;28;20016;-65
2022/10/05 09:51:39;;;;;;;;;;;;;;;22.18;41.47;96016.69;5071617;28;20052;-66
2022/10/05 09:54:04;;;;;;;;;;;;;;;21.27;42.23;96020.47;5072889;28;20071;-65
2022/10/05 09:56:48;;;;;;;;;;;;;;;22.02;40.33;96029.50;5071885;28;20056;-65
2022/10/05 09:59:13;;;;;;;;;;;;;;;21.52;41.91;96021.09;5053372;28;20021;-65
2022/10/05 10:01:57;;;;;;;;;;;;;;;22.23;40.24;96012.91;5070753;28;20358;-65
2022/10/05 10:04:28;;;;;;;;;;;;;;;22.13;39.90;96013.50;5052028;28;20024;-66
2022/10/05 10:06:53;;;;;;;;;;;;;;;22.41;40.01;96005.91;5051675;28;20014;-65
2022/10/05 10:09:18;;;;;;;;;;;;;;;22.13;40.10;96006.16;5051439;28;20024;-66
2022/10/05 10:12:06;;;;;;;;;;;;;;;22.85;39.00;96002.81;5052778;28;20025;-65
2022/10/05 10:14:47;;;;;;;;;;;;;;;22.85;38.54;96008.25;5073078;28;20512;-65
2022/10/05 10:17:21;;;;;;;;;;;;;;;23.38;38.26;95994.75;5072979;28;20477;-65
2022/10/05 10:19:52;;;;;;;;;;;;;;;22.63;39.06;96006.31;5071496;28;20012;-65
2022/10/05 10:22:29;;;;;;;;;;;;;;;22.36;39.53;96011.59;5072667;28;20087;-65
2022/10/05 10:25:18;;;;;;;;;;;;;;;23.25;38.07;96007.75;5071091;28;20077;-66
2022/10/05 10:27:57;;;;;;;;;;;;;;;23.09;38.07;96007.91;5072246;28;20553;-66
2022/10/05 10:30:28;;;;;;;;;;;;;;;22.77;39.58;96009.25;5072316;28;20013;-66
2022/10/05 10:32:53;;;;;;;;;;;;;;;23.30;38.25;96004.72;5072745;28;20009;-66
2022/10/05 10:35:28;;;;;;;;;;;;;;;23.43;37.95;95999.09;5070589;28;20100;-66
2022/10/05 10:38:12;;;;;;;;;;;;;;;23.80;37.38;96005.47;5071716;28;20024;-67
2022/10/05 10:40:46;;;;;;;;;;;;;;;23.34;37.85;96007.50;5072286;28;20491;-66
2022/10/05 10:43:21;;;;;;;;;;;;;;;23.94;36.88;96004.09;5070042;28;20021;-65
2022/10/05 10:45:53;;;;;;;;;;;;;;;23.51;36.94;96004.28;5070188;28;20465;-65
2022/10/05 10:48:18;;;;;;;;;;;;;;;23.48;36.79;95998.78;5069206;28;20077;-65
2022/10/05 10:51:03;;;;;;;;;;;;;;;23.45;37.31;96003.03;5070849;28;20026;-65
2022/10/05 10:53:28;;;;;;;;;;;;;;;23.52;37.58;95999.63;5072358;28;20066;-66
2022/10/05 10:56:00;;;;;;;;;;;;;;;23.05;38.07;96004.34;5072240;28;20009;-66
2022/10/05 10:58:42;;;;;;;;;;;;;;;23.51;37.09;95998.06;5068652;28;20021;-66
2022/10/05 11:01:07;;;;;;;;;;;;;;;24.21;37.24;95997.44;5070149;28;20025;-66
2022/10/05 11:03:32;;;;;;;;;;;;;;;23.86;36.93;95990.41;5070609;28;20020;-65
2022/10/05 11:06:01;;;;;;;;;;;;;;;24.55;36.39;95990.06;5069843;28;20574;-65
2022/10/05 11:08:29;;;;;;;;;;;;;;;23.73;37.06;95989.06;5071624;28;20009;-65
2022/10/05 11:11:14;;;;;;;;;;;;;;;23.30;37.18;95988.44;5070494;28;20025;-65
2022/10/05 11:13:42;;;;;;;;;;;;;;;23.08;38.46;95992.78;5068776;28;20032;-66
2022/10/05 11:16:16;;;;;;;;;;;;;;;23.07;37.47;95990.41;5071828;28;20015;-66
2022/10/05 11:18:41;;;;;;;;;;;;;;;23.42;38.54;95976.59;5069872;28;20020;-65
2022/10/05 11:21:13;;;;;;;;;;;;;;;24.29;36.28;95969.16;5072060;28;20013;-65
2022/10/05 11:23:47;;;;;;;;;;;;;;;24.61;35.41;95966.78;5069457;28;20021;-65
2022/10/05 11:26:15;;;;;;;;;;;;;;;23.60;37.19;95972.19;5071564;28;20008;-66
2022/10/05 11:29:03;;;;;;;;;;;;;;;24.83;35.81;95964.28;5070077;28;20500;-66
2022/10/05 11:32:04;;;;;;;;;;;;;;;23.67;37.39;95963.38;5071402;28;20078;-66
2022/10/05 11:34:32;;;;;;;;;;;;;;;24.01;37.21;95966.16;5008400;28;20490;-66
2022/10/05 11:37:16;;;;;;;;;;;;;;;24.51;36.34;95953.88;5043124;28;20128;-66
2022/10/05 11:39:50;;;;;;;;;;;;;;;23.83;37.01;95958.53;5079862;28;20036;-66
2022/10/05 11:42:31;;;;;;;;;;;;;;;24.47;36.96;95949.59;5051251;28;20008;-66
2022/10/05 11:45:15;;;;;;;;;;;;;;;25.19;35.74;95950.97;5068622;28;20013;-66
2022/10/05 11:47:55;;;;;;;;;;;;;;;25.25;35.38;95938.56;5071293;28;20032;-66
2022/10/05 11:50:27;;;;;;;;;;;;;;;25.31;35.89;95937.81;5070421;28;20013;-66
2022/10/05 11:53:12;;;;;;;;;;;;;;;26.22;34.93;95946.06;5070809;28;20437;-65
2022/10/05 11:55:52;;;;;;;;;;;;;;;25.15;35.48;95937.34;5067846;28;20103;-66
2022/10/05 11:58:18;;;;;;;;;;;;;;;26.04;34.55;95928.84;5069900;28;20021;-66
2022/10/05 12:01:02;;;;;;;;;;;;;;;26.72;33.87;95929.81;5069444;28;20020;-66
2022/10/05 12:03:49;;;;;;;;;;;;;;;25.30;35.60;95922.66;5069131;28;20021;-66
2022/10/05 12:06:18;;;;;;;;;;;;;;;25.62;34.01;95925.53;5069590;28;20488;-65
2022/10/05 12:09:09;;;;;;;;;;;;;;;26.12;33.69;95923.03;5068752;28;20072;-65
2022/10/05 12:11:53;;;;;;;;;;;;;;;26.22;34.95;95923.47;5068517;28;20025;-65
2022/10/05 12:14:27;;;;;;;;;;;;;;;26.80;33.96;95923.16;5070532;28;20017;-66
2022/10/05 12:16:53;;;;;;;;;;;;;;;26.85;32.18;95920.03;5070474;28;20078;-65
2022/10/05 12:19:24;;;;;;;;;;;;;;;26.98;32.28;95915.00;5069436;28;20549;-66
2022/10/05 12:22:02;;;;;;;;;;;;;;;27.16;31.81;95913.03;5069455;28;20017;-66
2022/10/05 12:24:34;;;;;;;;;;;;;;;25.81;31.87;95913.59;5069505;28;20017;-66
2022/10/05 12:27:19;;;;;;;;;;;;;;;25.05;34.06;95916.25;5070605;28;20088;-65
2022/10/05 12:29:52;;;;;;;;;;;;;;;26.00;32.61;95906.25;5067827;28;20074;-66
2022/10/05 12:32:20;;;;;;;;;;;;;;;26.72;33.05;95907.16;5070399;28;20017;-66
2022/10/05 12:34:51;;;;;;;;;;;;;;;27.01;32.50;95900.53;5067465;28;20071;-66
2022/10/05 12:37:35;;;;;;;;;;;;;;;26.92;32.83;95900.16;5069100;28;20111;-66
2022/10/05 12:40:12;;;;;;;;;;;;;;;26.34;32.54;95899.31;5069947;28;20122;-66
2022/10/05 12:42:53;;;;;;;;;;;;;;;26.99;31.33;95902.09;5067350;28;20023;-66
2022/10/05 12:45:42;;;;;;;;;;;;;;;27.30;31.67;95898.56;5069152;28;20071;-66
2022/10/05 12:48:11;;;;;;;;;;;;;;;27.58;31.21;95899.66;5068570;28;20107;-66
2022/10/05 12:50:36;;;;;;;;;;;;;;;27.10;31.18;95894.72;5068925;28;20017;-66
2022/10/05 12:53:20;;;;;;;;;;;;;;;26.84;31.48;95893.94;5066626;28;20031;-65
2022/10/05 12:55:57;;;;;;;;;;;;;;;26.55;31.36;95897.81;5069179;28;20023;-64
2022/10/05 12:58:25;;;;;;;;;;;;;;;27.24;30.88;95888.44;5068303;28;20027;-67
2022/10/05 13:00:56;;;;;;;;;;;;;;;26.98;31.35;95893.16;5070037;28;20148;-64
2022/10/05 13:03:36;;;;;;;;;;;;;;;27.46;30.60;95885.25;5066982;28;20028;-65
2022/10/05 13:06:16;;;;;;;;;;;;;;;27.31;29.87;95885.69;5070029;28;20008;-67
2022/10/05 13:08:48;;;;;;;;;;;;;;;26.90;30.43;95892.34;5068660;28;20445;-66
2022/10/05 13:11:23;;;;;;;;;;;;;;;26.59;31.42;95893.94;5068481;28;20022;-65
2022/10/05 13:13:51;;;;;;;;;;;;;;;27.08;30.79;95892.38;5067839;28;20051;-65
2022/10/05 13:16:26;;;;;;;;;;;;;;;26.80;31.04;95887.69;5070202;28;20009;-65
2022/10/05 13:18:51;;;;;;;;;;;;;;;26.76;31.46;95892.34;5067253;28;20485;-65
2022/10/05 13:21:24;;;;;;;;;;;;;;;26.00;32.12;95889.91;5068681;28;20013;-65
2022/10/05 13:23:49;;;;;;;;;;;;;;;26.38;31.55;95894.66;5068927;28;20101;-65
2022/10/05 13:26:25;;;;;;;;;;;;;;;26.05;32.54;95889.50;5069837;28;20079;-65